WZZ4GA LDDU-LGZA
Flight info
| Callsign | WZZ4GA |
|---|---|
| Flight time | N/A |
| Altitude | 37000 |
| Route | MADOS DCT KONUV DCT LEBGA DCT PITAS UN732 ORTOS/N0446F360 DCT ASTUS DCT AKETO |
| Aircraft | A321/M-SDE3FGHIRWY/LB1 |
Departure
| Time | N/A |
|---|---|
| Airport | Dubrovnik Ruđer Bošković Airport (LDDU) |
Arrival
| Time | 2026-05-06 21:05 |
|---|---|
| Airport | Zakynthos International Airport Dionysios Solomos (LGZA) |
| Time | Latitude | Longitude | Altitude | Speed | Heading |
|---|---|---|---|---|---|
| 2026-05-06 20:40 | 39.73992 | 19.92490 | 37122 ft | 472 kts | 162° |
| 2026-05-06 20:40 | 39.67867 | 19.95561 | 37129 ft | 472 kts | 161° |
| 2026-05-06 20:41 | 39.61738 | 19.98625 | 37130 ft | 472 kts | 161° |
| 2026-05-06 20:41 | 39.55607 | 20.01692 | 37133 ft | 472 kts | 161° |
| 2026-05-06 20:42 | 39.49474 | 20.04746 | 37131 ft | 472 kts | 161° |
| 2026-05-06 20:42 | 39.43368 | 20.07618 | 37136 ft | 469 kts | 168° |
| 2026-05-06 20:43 | 39.37038 | 20.09704 | 37143 ft | 469 kts | 168° |
| 2026-05-06 20:43 | 39.30709 | 20.11788 | 37124 ft | 469 kts | 168° |
| 2026-05-06 20:44 | 39.24430 | 20.13852 | 37141 ft | 469 kts | 168° |
| 2026-05-06 20:44 | 39.18077 | 20.15749 | 37112 ft | 466 kts | 178° |
| 2026-05-06 20:45 | 39.11635 | 20.15678 | 37103 ft | 463 kts | 185° |
| 2026-05-06 20:45 | 39.05184 | 20.15414 | 37106 ft | 464 kts | 185° |
| 2026-05-06 20:46 | 38.98713 | 20.15142 | 37129 ft | 465 kts | 185° |
| 2026-05-06 20:46 | 38.92233 | 20.14889 | 37122 ft | 465 kts | 185° |
| 2026-05-06 20:46 | 38.88992 | 20.14769 | 36515 ft | 469 kts | 185° |
| 2026-05-06 20:47 | 38.85700 | 20.14644 | 35601 ft | 476 kts | 185° |
| 2026-05-06 20:47 | 38.82382 | 20.14516 | 34882 ft | 478 kts | 185° |
| 2026-05-06 20:47 | 38.79044 | 20.14386 | 34149 ft | 481 kts | 185° |
| 2026-05-06 20:47 | 38.75677 | 20.14251 | 33212 ft | 485 kts | 184° |
| 2026-05-06 20:48 | 38.72291 | 20.14115 | 32381 ft | 487 kts | 184° |
| 2026-05-06 20:48 | 38.68897 | 20.13982 | 31463 ft | 490 kts | 183° |
| 2026-05-06 20:48 | 38.65471 | 20.13852 | 30507 ft | 494 kts | 183° |
| 2026-05-06 20:48 | 38.62027 | 20.13724 | 29575 ft | 495 kts | 182° |
| 2026-05-06 20:49 | 38.58572 | 20.13598 | 28475 ft | 497 kts | 183° |
| 2026-05-06 20:49 | 38.55132 | 20.13471 | 27566 ft | 494 kts | 183° |
| 2026-05-06 20:49 | 38.51724 | 20.13342 | 26545 ft | 495 kts | 183° |
| 2026-05-06 20:49 | 38.48241 | 20.13208 | 25571 ft | 494 kts | 184° |
| 2026-05-06 20:50 | 38.44859 | 20.13080 | 24752 ft | 491 kts | 184° |
| 2026-05-06 20:50 | 38.41455 | 20.12949 | 23902 ft | 489 kts | 184° |
| 2026-05-06 20:50 | 38.38052 | 20.12817 | 23058 ft | 484 kts | 184° |
| 2026-05-06 20:50 | 38.34692 | 20.12686 | 22263 ft | 479 kts | 184° |
| 2026-05-06 20:51 | 38.31381 | 20.12555 | 21483 ft | 472 kts | 184° |
| 2026-05-06 20:51 | 38.28148 | 20.12431 | 20631 ft | 469 kts | 184° |
| 2026-05-06 20:51 | 38.24920 | 20.12310 | 19875 ft | 463 kts | 184° |
| 2026-05-06 20:51 | 38.21720 | 20.12187 | 19137 ft | 458 kts | 184° |
| 2026-05-06 20:52 | 38.18551 | 20.12066 | 18440 ft | 452 kts | 184° |
| 2026-05-06 20:52 | 38.15423 | 20.11946 | 17701 ft | 446 kts | 184° |
| 2026-05-06 20:52 | 38.12355 | 20.11831 | 17049 ft | 437 kts | 184° |
| 2026-05-06 20:52 | 38.09346 | 20.11722 | 16438 ft | 429 kts | 184° |
| 2026-05-06 20:53 | 38.06381 | 20.11612 | 15848 ft | 422 kts | 184° |
| 2026-05-06 20:53 | 38.03466 | 20.11500 | 15262 ft | 417 kts | 184° |
| 2026-05-06 20:53 | 38.00563 | 20.11593 | 14372 ft | 422 kts | 173° |
| 2026-05-06 20:53 | 37.97751 | 20.12717 | 13512 ft | 427 kts | 155° |
| 2026-05-06 20:54 | 37.95325 | 20.14845 | 12950 ft | 423 kts | 138° |
| 2026-05-06 20:54 | 37.93482 | 20.17711 | 12372 ft | 418 kts | 121° |
| 2026-05-06 20:54 | 37.92384 | 20.21079 | 11770 ft | 413 kts | 104° |
| 2026-05-06 20:54 | 37.91771 | 20.24610 | 11238 ft | 406 kts | 102° |
| 2026-05-06 20:55 | 37.91198 | 20.28027 | 11116 ft | 388 kts | 102° |
| 2026-05-06 20:55 | 37.90651 | 20.31299 | 10991 ft | 371 kts | 102° |
| 2026-05-06 20:55 | 37.90124 | 20.34423 | 10869 ft | 356 kts | 102° |
| 2026-05-06 20:55 | 37.89612 | 20.37424 | 10748 ft | 342 kts | 102° |
| 2026-05-06 20:56 | 37.89121 | 20.40272 | 10628 ft | 329 kts | 102° |
| 2026-05-06 20:56 | 37.88638 | 20.43053 | 10509 ft | 317 kts | 102° |
| 2026-05-06 20:56 | 37.88168 | 20.45744 | 10288 ft | 310 kts | 102° |
| 2026-05-06 20:56 | 37.87708 | 20.48382 | 10202 ft | 306 kts | 103° |
| 2026-05-06 20:57 | 37.87250 | 20.51007 | 10127 ft | 306 kts | 103° |
| 2026-05-06 20:57 | 37.86766 | 20.53637 | 9818 ft | 307 kts | 108° |
| 2026-05-06 20:57 | 37.85971 | 20.56135 | 9414 ft | 306 kts | 112° |
| 2026-05-06 20:57 | 37.85582 | 20.58750 | 8975 ft | 306 kts | 84° |
| 2026-05-06 20:58 | 37.86300 | 20.61221 | 8628 ft | 300 kts | 52° |
| 2026-05-06 20:58 | 37.87889 | 20.62852 | 8224 ft | 294 kts | 24° |
| 2026-05-06 20:58 | 37.89771 | 20.63887 | 7842 ft | 294 kts | 23° |
| 2026-05-06 20:58 | 37.91558 | 20.65141 | 7393 ft | 296 kts | 35° |
| 2026-05-06 20:59 | 37.93095 | 20.66843 | 7132 ft | 291 kts | 46° |
| 2026-05-06 20:59 | 37.94385 | 20.68815 | 6765 ft | 291 kts | 54° |
| 2026-05-06 20:59 | 37.95523 | 20.70937 | 6313 ft | 293 kts | 58° |
| 2026-05-06 20:59 | 37.96562 | 20.73185 | 5707 ft | 292 kts | 62° |
| 2026-05-06 21:00 | 37.97436 | 20.75431 | 5301 ft | 275 kts | 70° |
| 2026-05-06 21:00 | 37.97661 | 20.77741 | 4946 ft | 261 kts | 102° |
| 2026-05-06 21:00 | 37.96920 | 20.79732 | 4593 ft | 254 kts | 134° |
| 2026-05-06 21:00 | 37.95460 | 20.80919 | 4242 ft | 251 kts | 163° |
| 2026-05-06 21:01 | 37.93780 | 20.81523 | 3901 ft | 250 kts | 165° |
| 2026-05-06 21:01 | 37.92122 | 20.82117 | 3574 ft | 245 kts | 164° |
| 2026-05-06 21:01 | 37.90498 | 20.82708 | 3219 ft | 241 kts | 164° |
| 2026-05-06 21:01 | 37.88900 | 20.83288 | 2896 ft | 236 kts | 164° |
| 2026-05-06 21:02 | 37.87349 | 20.83854 | 2577 ft | 226 kts | 163° |
| 2026-05-06 21:02 | 37.85870 | 20.84391 | 2272 ft | 214 kts | 164° |
| 2026-05-06 21:02 | 37.84506 | 20.84882 | 1990 ft | 192 kts | 163° |
| 2026-05-06 21:02 | 37.83320 | 20.85309 | 1707 ft | 166 kts | 163° |
| 2026-05-06 21:03 | 37.82245 | 20.85696 | 1458 ft | 157 kts | 163° |
| 2026-05-06 21:03 | 37.81211 | 20.86069 | 1238 ft | 152 kts | 163° |
| 2026-05-06 21:03 | 37.80208 | 20.86473 | 1009 ft | 150 kts | 159° |
| 2026-05-06 21:03 | 37.79215 | 20.86881 | 802 ft | 149 kts | 163° |
| 2026-05-06 21:04 | 37.78225 | 20.87259 | 593 ft | 148 kts | 163° |
| 2026-05-06 21:04 | 37.77253 | 20.87623 | 384 ft | 147 kts | 164° |
| 2026-05-06 21:04 | 37.76272 | 20.87987 | 170 ft | 147 kts | 163° |
| 2026-05-06 21:04 | 37.75304 | 20.88350 | 20 ft | 132 kts | 164° |
| 2026-05-06 21:05 | 37.74715 | 20.88569 | 21 ft | 37 kts | 162° |
| 2026-05-06 21:05 | 37.74617 | 20.88639 | 21 ft | 6 kts | 192° |
| 2026-05-06 21:05 | 37.74629 | 20.88607 | 21 ft | 9 kts | 327° |
| 2026-05-06 21:05 | 37.74727 | 20.88563 | 21 ft | 21 kts | 343° |
| 2026-05-06 21:06 | 37.74884 | 20.88505 | 19 ft | 25 kts | 343° |
| 2026-05-06 21:06 | 37.75053 | 20.88487 | 19 ft | 25 kts | 26° |
| 2026-05-06 21:06 | 37.75193 | 20.88504 | 20 ft | 20 kts | 340° |
| 2026-05-06 21:06 | 37.75270 | 20.88491 | 20 ft | 6 kts | 35° |
| 2026-05-06 21:07 | 37.75286 | 20.88546 | 23 ft | 7 kts | 72° |
| 2026-05-06 21:07 | 37.75289 | 20.88560 | 22 ft | 0 kts | 73° |